Terminal Aerodrome Forecast
Issued by NWS

Home | Current Version | Previous Version | Graphics & Text | Print | Product List | Glossary On
Versions: 1 2 3 4 5 6 7 8 9 10 11 12 13 14 15 16 17 18 19 20
011
FTUS41 KCLE 231730
TAFFDY
TAF
KFDY 231730Z 2318/2418 32007KT P6SM SCT050 BKN100
     FM232300 02011KT P6SM SCT030 OVC050
     FM240400 04008KT 5SM BR BKN012
     FM241600 07010KT P6SM BKN025=

USA.gov is the U.S. government's official web portal to all federal, state and local government web resources and services.